sensor_id;sensor_type;location;lat;lon;timestamp;temperature;humidity
11246;DHT22;59870;50.106;8.580;2023-07-22T00:01:15;20.10;90.90
11246;DHT22;59870;50.106;8.580;2023-07-22T00:03:43;20.00;90.90
11246;DHT22;59870;50.106;8.580;2023-07-22T00:06:10;20.00;90.90
11246;DHT22;59870;50.106;8.580;2023-07-22T00:08:38;20.00;90.80
11246;DHT22;59870;50.106;8.580;2023-07-22T00:11:07;20.20;90.90
11246;DHT22;59870;50.106;8.580;2023-07-22T00:13:35;19.90;90.70
11246;DHT22;59870;50.106;8.580;2023-07-22T00:16:03;20.00;90.70
11246;DHT22;59870;50.106;8.580;2023-07-22T00:18:35;19.90;90.60
11246;DHT22;59870;50.106;8.580;2023-07-22T00:21:02;19.90;90.60
11246;DHT22;59870;50.106;8.580;2023-07-22T00:23:30;19.90;90.50
11246;DHT22;59870;50.106;8.580;2023-07-22T00:25:57;19.90;90.50
11246;DHT22;59870;50.106;8.580;2023-07-22T00:28:24;19.80;90.50
11246;DHT22;59870;50.106;8.580;2023-07-22T00:30:52;19.80;90.60
11246;DHT22;59870;50.106;8.580;2023-07-22T00:33:21;19.80;90.50
11246;DHT22;59870;50.106;8.580;2023-07-22T00:35:48;19.70;90.50
11246;DHT22;59870;50.106;8.580;2023-07-22T00:38:18;20.00;90.60
11246;DHT22;59870;50.106;8.580;2023-07-22T00:40:46;19.70;90.40
11246;DHT22;59870;50.106;8.580;2023-07-22T00:43:14;19.70;90.30
11246;DHT22;59870;50.106;8.580;2023-07-22T00:45:41;19.60;90.30
11246;DHT22;59870;50.106;8.580;2023-07-22T00:48:09;19.60;90.30
11246;DHT22;59870;50.106;8.580;2023-07-22T00:50:38;19.60;90.40
11246;DHT22;59870;50.106;8.580;2023-07-22T00:53:06;19.60;90.40
11246;DHT22;59870;50.106;8.580;2023-07-22T00:55:35;19.60;90.50
11246;DHT22;59870;50.106;8.580;2023-07-22T00:58:02;19.50;90.60
11246;DHT22;59870;50.106;8.580;2023-07-22T01:00:30;19.50;90.60
11246;DHT22;59870;50.106;8.580;2023-07-22T01:02:58;19.40;90.60
11246;DHT22;59870;50.106;8.580;2023-07-22T01:05:26;19.40;90.60
11246;DHT22;59870;50.106;8.580;2023-07-22T01:07:54;19.40;90.70
11246;DHT22;59870;50.106;8.580;2023-07-22T01:10:23;19.40;90.80
11246;DHT22;59870;50.106;8.580;2023-07-22T01:12:50;19.40;90.80
11246;DHT22;59870;50.106;8.580;2023-07-22T01:15:18;19.40;90.90
11246;DHT22;59870;50.106;8.580;2023-07-22T01:17:45;19.40;91.00
11246;DHT22;59870;50.106;8.580;2023-07-22T01:20:13;19.30;90.90
11246;DHT22;59870;50.106;8.580;2023-07-22T01:22:42;19.30;90.90
11246;DHT22;59870;50.106;8.580;2023-07-22T01:25:10;19.30;90.90
11246;DHT22;59870;50.106;8.580;2023-07-22T01:27:38;19.30;90.90
11246;DHT22;59870;50.106;8.580;2023-07-22T01:30:06;19.20;91.20
11246;DHT22;59870;50.106;8.580;2023-07-22T01:32:36;19.20;90.70
11246;DHT22;59870;50.106;8.580;2023-07-22T01:35:05;19.20;90.80
11246;DHT22;59870;50.106;8.580;2023-07-22T01:37:33;19.20;90.80
11246;DHT22;59870;50.106;8.580;2023-07-22T01:40:01;19.20;90.80
11246;DHT22;59870;50.106;8.580;2023-07-22T01:42:35;19.10;90.80
11246;DHT22;59870;50.106;8.580;2023-07-22T01:45:03;19.10;90.80
11246;DHT22;59870;50.106;8.580;2023-07-22T01:47:37;19.00;90.70
11246;DHT22;59870;50.106;8.580;2023-07-22T01:50:06;19.00;90.80
11246;DHT22;59870;50.106;8.580;2023-07-22T01:52:34;18.90;90.60
11246;DHT22;59870;50.106;8.580;2023-07-22T01:55:02;18.90;90.70
11246;DHT22;59870;50.106;8.580;2023-07-22T01:57:33;18.80;90.70
11246;DHT22;59870;50.106;8.580;2023-07-22T02:00:01;18.80;90.60
11246;DHT22;59870;50.106;8.580;2023-07-22T02:02:39;18.90;90.70
11246;DHT22;59870;50.106;8.580;2023-07-22T02:05:08;18.80;90.60
11246;DHT22;59870;50.106;8.580;2023-07-22T02:07:38;18.80;90.60
11246;DHT22;59870;50.106;8.580;2023-07-22T02:10:07;18.80;91.10
11246;DHT22;59870;50.106;8.580;2023-07-22T02:12:35;18.70;90.90
11246;DHT22;59870;50.106;8.580;2023-07-22T02:15:03;18.70;90.80
11246;DHT22;59870;50.106;8.580;2023-07-22T02:17:31;18.70;90.70
11246;DHT22;59870;50.106;8.580;2023-07-22T02:19:59;18.70;90.70
11246;DHT22;59870;50.106;8.580;2023-07-22T02:22:26;18.70;90.70
11246;DHT22;59870;50.106;8.580;2023-07-22T02:24:54;18.60;90.60
11246;DHT22;59870;50.106;8.580;2023-07-22T02:27:21;18.60;90.60
11246;DHT22;59870;50.106;8.580;2023-07-22T02:29:48;18.60;90.70
11246;DHT22;59870;50.106;8.580;2023-07-22T02:32:16;18.50;90.60
11246;DHT22;59870;50.106;8.580;2023-07-22T02:34:43;18.80;90.80
11246;DHT22;59870;50.106;8.580;2023-07-22T02:37:10;18.60;90.70
11246;DHT22;59870;50.106;8.580;2023-07-22T02:39:38;18.50;90.60
11246;DHT22;59870;50.106;8.580;2023-07-22T02:42:06;18.50;90.60
11246;DHT22;59870;50.106;8.580;2023-07-22T02:44:34;18.50;90.60
11246;DHT22;59870;50.106;8.580;2023-07-22T02:47:01;18.50;90.70
11246;DHT22;59870;50.106;8.580;2023-07-22T02:49:29;18.50;90.60
11246;DHT22;59870;50.106;8.580;2023-07-22T02:51:56;18.40;90.70
11246;DHT22;59870;50.106;8.580;2023-07-22T02:54:24;18.40;90.70
11246;DHT22;59870;50.106;8.580;2023-07-22T02:56:51;18.30;90.70
11246;DHT22;59870;50.106;8.580;2023-07-22T02:59:19;18.60;91.00
11246;DHT22;59870;50.106;8.580;2023-07-22T03:01:46;18.50;90.90
11246;DHT22;59870;50.106;8.580;2023-07-22T03:04:14;18.20;90.70
11246;DHT22;59870;50.106;8.580;2023-07-22T03:06:42;18.20;90.80
11246;DHT22;59870;50.106;8.580;2023-07-22T03:09:11;18.20;90.80
11246;DHT22;59870;50.106;8.580;2023-07-22T03:11:38;18.10;90.80
11246;DHT22;59870;50.106;8.580;2023-07-22T03:14:06;18.10;90.70
11246;DHT22;59870;50.106;8.580;2023-07-22T03:16:33;18.10;90.80
11246;DHT22;59870;50.106;8.580;2023-07-22T03:19:00;18.10;90.80
11246;DHT22;59870;50.106;8.580;2023-07-22T03:21:28;18.10;90.80
11246;DHT22;59870;50.106;8.580;2023-07-22T03:23:56;18.10;90.80
11246;DHT22;59870;50.106;8.580;2023-07-22T03:26:24;18.00;90.80
11246;DHT22;59870;50.106;8.580;2023-07-22T03:28:52;18.00;90.80
11246;DHT22;59870;50.106;8.580;2023-07-22T03:31:20;18.00;90.80
11246;DHT22;59870;50.106;8.580;2023-07-22T03:33:48;17.90;90.90
11246;DHT22;59870;50.106;8.580;2023-07-22T03:36:17;17.90;90.60
11246;DHT22;59870;50.106;8.580;2023-07-22T03:38:44;17.80;90.70
11246;DHT22;59870;50.106;8.580;2023-07-22T03:41:12;17.80;90.70
11246;DHT22;59870;50.106;8.580;2023-07-22T03:43:39;17.80;90.70
11246;DHT22;59870;50.106;8.580;2023-07-22T03:46:06;17.80;90.80
11246;DHT22;59870;50.106;8.580;2023-07-22T03:48:34;17.80;90.80
11246;DHT22;59870;50.106;8.580;2023-07-22T03:51:01;17.80;90.90
11246;DHT22;59870;50.106;8.580;2023-07-22T03:53:46;17.70;90.80
11246;DHT22;59870;50.106;8.580;2023-07-22T03:56:13;17.70;90.80
11246;DHT22;59870;50.106;8.580;2023-07-22T03:58:40;17.60;90.90
11246;DHT22;59870;50.106;8.580;2023-07-22T04:01:11;17.60;90.90
11246;DHT22;59870;50.106;8.580;2023-07-22T04:03:38;17.60;91.00
11246;DHT22;59870;50.106;8.580;2023-07-22T04:06:06;17.60;91.00
11246;DHT22;59870;50.106;8.580;2023-07-22T04:08:33;17.50;90.90
11246;DHT22;59870;50.106;8.580;2023-07-22T04:11:01;17.60;91.20
11246;DHT22;59870;50.106;8.580;2023-07-22T04:13:28;17.50;91.20
11246;DHT22;59870;50.106;8.580;2023-07-22T04:15:56;17.50;91.20
11246;DHT22;59870;50.106;8.580;2023-07-22T04:18:24;17.50;91.10
11246;DHT22;59870;50.106;8.580;2023-07-22T04:20:55;17.50;91.00
11246;DHT22;59870;50.106;8.580;2023-07-22T04:23:24;17.50;91.10
11246;DHT22;59870;50.106;8.580;2023-07-22T04:25:51;17.50;91.20
11246;DHT22;59870;50.106;8.580;2023-07-22T04:28:19;17.50;91.30
11246;DHT22;59870;50.106;8.580;2023-07-22T04:30:55;17.50;91.40
11246;DHT22;59870;50.106;8.580;2023-07-22T04:33:23;17.50;91.30
11246;DHT22;59870;50.106;8.580;2023-07-22T04:35:55;17.50;91.20
11246;DHT22;59870;50.106;8.580;2023-07-22T04:38:22;17.50;91.40
11246;DHT22;59870;50.106;8.580;2023-07-22T04:40:50;17.60;91.60
11246;DHT22;59870;50.106;8.580;2023-07-22T04:43:17;17.60;91.80
11246;DHT22;59870;50.106;8.580;2023-07-22T04:45:48;17.60;91.90
11246;DHT22;59870;50.106;8.580;2023-07-22T04:48:18;17.60;92.00
11246;DHT22;59870;50.106;8.580;2023-07-22T04:50:46;17.60;92.10
11246;DHT22;59870;50.106;8.580;2023-07-22T04:53:13;17.60;92.20
11246;DHT22;59870;50.106;8.580;2023-07-22T04:55:41;17.60;92.30
11246;DHT22;59870;50.106;8.580;2023-07-22T04:58:09;17.60;92.40
11246;DHT22;59870;50.106;8.580;2023-07-22T05:00:38;17.70;92.40
11246;DHT22;59870;50.106;8.580;2023-07-22T05:03:05;17.70;92.50
11246;DHT22;59870;50.106;8.580;2023-07-22T05:05:33;17.80;92.60
11246;DHT22;59870;50.106;8.580;2023-07-22T05:08:00;17.80;92.50
11246;DHT22;59870;50.106;8.580;2023-07-22T05:10:29;18.20;92.70
11246;DHT22;59870;50.106;8.580;2023-07-22T05:12:56;17.90;92.50
11246;DHT22;59870;50.106;8.580;2023-07-22T05:15:26;18.00;92.60
11246;DHT22;59870;50.106;8.580;2023-07-22T05:17:53;18.10;92.70
11246;DHT22;59870;50.106;8.580;2023-07-22T05:20:21;18.50;93.00
11246;DHT22;59870;50.106;8.580;2023-07-22T05:22:49;18.20;93.10
11246;DHT22;59870;50.106;8.580;2023-07-22T05:25:16;18.30;93.00
11246;DHT22;59870;50.106;8.580;2023-07-22T05:27:44;18.40;92.70
11246;DHT22;59870;50.106;8.580;2023-07-22T05:30:11;18.50;92.90
11246;DHT22;59870;50.106;8.580;2023-07-22T05:33:00;18.60;92.80
11246;DHT22;59870;50.106;8.580;2023-07-22T05:35:27;18.70;92.10
11246;DHT22;59870;50.106;8.580;2023-07-22T05:37:54;18.80;92.30
11246;DHT22;59870;50.106;8.580;2023-07-22T05:40:22;19.20;92.30
11246;DHT22;59870;50.106;8.580;2023-07-22T05:42:49;19.00;92.50
11246;DHT22;59870;50.106;8.580;2023-07-22T05:45:17;19.40;92.80
11246;DHT22;59870;50.106;8.580;2023-07-22T05:47:44;19.20;92.70
11246;DHT22;59870;50.106;8.580;2023-07-22T05:50:13;19.40;92.20
11246;DHT22;59870;50.106;8.580;2023-07-22T05:52:40;19.50;92.20
11246;DHT22;59870;50.106;8.580;2023-07-22T05:55:08;19.60;91.90
11246;DHT22;59870;50.106;8.580;2023-07-22T05:57:36;19.80;91.90
11246;DHT22;59870;50.106;8.580;2023-07-22T06:00:03;20.10;91.80
11246;DHT22;59870;50.106;8.580;2023-07-22T06:02:41;20.00;91.60
11246;DHT22;59870;50.106;8.580;2023-07-22T06:05:09;20.40;91.40
11246;DHT22;59870;50.106;8.580;2023-07-22T06:07:36;20.30;90.90
11246;DHT22;59870;50.106;8.580;2023-07-22T06:10:05;20.50;90.80
11246;DHT22;59870;50.106;8.580;2023-07-22T06:12:33;20.70;91.10
11246;DHT22;59870;50.106;8.580;2023-07-22T06:15:00;20.90;90.80
11246;DHT22;59870;50.106;8.580;2023-07-22T06:17:30;21.40;90.60
11246;DHT22;59870;50.106;8.580;2023-07-22T06:19:57;21.40;90.40
11246;DHT22;59870;50.106;8.580;2023-07-22T06:22:25;21.60;90.10
11246;DHT22;59870;50.106;8.580;2023-07-22T06:24:53;21.80;88.00
11246;DHT22;59870;50.106;8.580;2023-07-22T06:27:21;22.20;88.40
11246;DHT22;59870;50.106;8.580;2023-07-22T06:29:49;22.60;86.80
11246;DHT22;59870;50.106;8.580;2023-07-22T06:32:17;23.10;85.50
11246;DHT22;59870;50.106;8.580;2023-07-22T06:34:44;23.60;83.70
11246;DHT22;59870;50.106;8.580;2023-07-22T06:37:11;24.00;81.40
11246;DHT22;59870;50.106;8.580;2023-07-22T06:39:39;24.80;79.40
11246;DHT22;59870;50.106;8.580;2023-07-22T06:42:06;24.90;75.60
11246;DHT22;59870;50.106;8.580;2023-07-22T06:44:34;25.30;74.60
11246;DHT22;59870;50.106;8.580;2023-07-22T06:47:01;25.70;73.90
11246;DHT22;59870;50.106;8.580;2023-07-22T06:49:28;25.90;73.90
11246;DHT22;59870;50.106;8.580;2023-07-22T06:51:56;26.20;70.40
11246;DHT22;59870;50.106;8.580;2023-07-22T06:54:23;26.70;66.00
11246;DHT22;59870;50.106;8.580;2023-07-22T06:56:51;27.10;65.50
11246;DHT22;59870;50.106;8.580;2023-07-22T06:59:18;26.90;62.60
11246;DHT22;59870;50.106;8.580;2023-07-22T07:01:45;26.90;63.60
11246;DHT22;59870;50.106;8.580;2023-07-22T07:04:13;27.00;63.80
11246;DHT22;59870;50.106;8.580;2023-07-22T07:06:41;27.30;64.10
11246;DHT22;59870;50.106;8.580;2023-07-22T07:09:08;27.60;64.10
11246;DHT22;59870;50.106;8.580;2023-07-22T07:11:36;28.00;63.60
11246;DHT22;59870;50.106;8.580;2023-07-22T07:14:04;28.20;61.90
11246;DHT22;59870;50.106;8.580;2023-07-22T07:16:31;28.80;59.70
11246;DHT22;59870;50.106;8.580;2023-07-22T07:19:00;28.90;59.50
11246;DHT22;59870;50.106;8.580;2023-07-22T07:21:28;29.10;57.10
11246;DHT22;59870;50.106;8.580;2023-07-22T07:23:58;29.20;56.20
11246;DHT22;59870;50.106;8.580;2023-07-22T07:26:25;29.30;56.40
11246;DHT22;59870;50.106;8.580;2023-07-22T07:28:53;29.60;56.20
11246;DHT22;59870;50.106;8.580;2023-07-22T07:31:21;30.20;56.10
11246;DHT22;59870;50.106;8.580;2023-07-22T07:33:48;30.30;56.00
11246;DHT22;59870;50.106;8.580;2023-07-22T07:36:16;30.70;54.10
11246;DHT22;59870;50.106;8.580;2023-07-22T07:38:43;31.10;53.70
11246;DHT22;59870;50.106;8.580;2023-07-22T07:41:11;31.50;52.20
11246;DHT22;59870;50.106;8.580;2023-07-22T07:43:40;31.90;52.20
11246;DHT22;59870;50.106;8.580;2023-07-22T07:46:26;32.10;49.00
11246;DHT22;59870;50.106;8.580;2023-07-22T07:48:58;32.10;49.50
11246;DHT22;59870;50.106;8.580;2023-07-22T07:51:29;32.10;46.10
11246;DHT22;59870;50.106;8.580;2023-07-22T07:53:58;32.00;49.00
11246;DHT22;59870;50.106;8.580;2023-07-22T07:56:26;31.90;45.90
11246;DHT22;59870;50.106;8.580;2023-07-22T07:58:54;31.90;47.90
11246;DHT22;59870;50.106;8.580;2023-07-22T08:01:22;32.00;45.90
11246;DHT22;59870;50.106;8.580;2023-07-22T08:03:49;31.80;48.20
11246;DHT22;59870;50.106;8.580;2023-07-22T08:06:17;31.80;48.10
11246;DHT22;59870;50.106;8.580;2023-07-22T08:08:48;31.80;49.20
11246;DHT22;59870;50.106;8.580;2023-07-22T08:11:16;31.90;47.40
11246;DHT22;59870;50.106;8.580;2023-07-22T08:13:44;31.80;46.10
11246;DHT22;59870;50.106;8.580;2023-07-22T08:16:13;31.80;48.30
11246;DHT22;59870;50.106;8.580;2023-07-22T08:18:41;31.90;48.60
11246;DHT22;59870;50.106;8.580;2023-07-22T08:21:09;32.00;45.80
11246;DHT22;59870;50.106;8.580;2023-07-22T08:23:37;32.20;44.60
11246;DHT22;59870;50.106;8.580;2023-07-22T08:26:05;32.20;45.80
11246;DHT22;59870;50.106;8.580;2023-07-22T08:28:34;32.40;46.10
11246;DHT22;59870;50.106;8.580;2023-07-22T08:31:01;32.50;43.70
11246;DHT22;59870;50.106;8.580;2023-07-22T08:33:30;32.70;45.50
11246;DHT22;59870;50.106;8.580;2023-07-22T08:36:08;33.10;42.80
11246;DHT22;59870;50.106;8.580;2023-07-22T08:38:36;33.10;43.60
11246;DHT22;59870;50.106;8.580;2023-07-22T08:41:04;33.40;43.50
11246;DHT22;59870;50.106;8.580;2023-07-22T08:43:34;33.70;41.10
11246;DHT22;59870;50.106;8.580;2023-07-22T08:46:05;33.90;40.40
11246;DHT22;59870;50.106;8.580;2023-07-22T08:48:34;34.20;42.20
11246;DHT22;59870;50.106;8.580;2023-07-22T08:51:10;34.40;40.00
11246;DHT22;59870;50.106;8.580;2023-07-22T08:53:40;34.80;40.30
11246;DHT22;59870;50.106;8.580;2023-07-22T08:56:09;34.80;37.50
11246;DHT22;59870;50.106;8.580;2023-07-22T08:58:38;35.20;38.80
11246;DHT22;59870;50.106;8.580;2023-07-22T09:01:06;35.40;39.50
11246;DHT22;59870;50.106;8.580;2023-07-22T09:03:35;35.50;39.40
11246;DHT22;59870;50.106;8.580;2023-07-22T09:06:04;35.70;37.40
11246;DHT22;59870;50.106;8.580;2023-07-22T09:08:32;35.90;35.60
11246;DHT22;59870;50.106;8.580;2023-07-22T09:11:01;36.00;37.00
11246;DHT22;59870;50.106;8.580;2023-07-22T09:13:29;36.00;35.80
11246;DHT22;59870;50.106;8.580;2023-07-22T09:15:57;36.00;35.60
11246;DHT22;59870;50.106;8.580;2023-07-22T09:18:28;35.90;35.40
11246;DHT22;59870;50.106;8.580;2023-07-22T09:20:56;36.00;36.20
11246;DHT22;59870;50.106;8.580;2023-07-22T09:23:37;36.00;34.60
11246;DHT22;59870;50.106;8.580;2023-07-22T09:26:15;36.00;36.40
11246;DHT22;59870;50.106;8.580;2023-07-22T09:31:17;35.90;35.00
11246;DHT22;59870;50.106;8.580;2023-07-22T09:33:45;35.90;33.70
11246;DHT22;59870;50.106;8.580;2023-07-22T09:36:12;35.80;33.70
11246;DHT22;59870;50.106;8.580;2023-07-22T09:38:40;35.90;34.80
11246;DHT22;59870;50.106;8.580;2023-07-22T09:41:08;35.70;34.50
11246;DHT22;59870;50.106;8.580;2023-07-22T09:43:38;35.80;34.60
11246;DHT22;59870;50.106;8.580;2023-07-22T09:46:11;35.70;35.70
11246;DHT22;59870;50.106;8.580;2023-07-22T09:48:43;35.50;33.20
11246;DHT22;59870;50.106;8.580;2023-07-22T09:51:16;35.60;35.60
11246;DHT22;59870;50.106;8.580;2023-07-22T09:53:47;35.50;33.60
11246;DHT22;59870;50.106;8.580;2023-07-22T09:56:15;35.10;36.10
11246;DHT22;59870;50.106;8.580;2023-07-22T09:58:43;35.00;34.50
11246;DHT22;59870;50.106;8.580;2023-07-22T10:01:14;34.90;35.60
11246;DHT22;59870;50.106;8.580;2023-07-22T10:03:44;34.90;34.80
11246;DHT22;59870;50.106;8.580;2023-07-22T10:06:13;34.70;35.10
11246;DHT22;59870;50.106;8.580;2023-07-22T10:08:43;34.50;35.70
11246;DHT22;59870;50.106;8.580;2023-07-22T10:11:13;34.40;36.00
11246;DHT22;59870;50.106;8.580;2023-07-22T10:13:43;34.10;35.50
11246;DHT22;59870;50.106;8.580;2023-07-22T10:16:13;34.00;35.30
11246;DHT22;59870;50.106;8.580;2023-07-22T10:18:43;33.80;37.20
11246;DHT22;59870;50.106;8.580;2023-07-22T10:21:13;33.70;36.80
11246;DHT22;59870;50.106;8.580;2023-07-22T10:23:41;33.50;36.10
11246;DHT22;59870;50.106;8.580;2023-07-22T10:26:11;33.40;36.30
11246;DHT22;59870;50.106;8.580;2023-07-22T10:29:05;33.30;37.70
11246;DHT22;59870;50.106;8.580;2023-07-22T10:31:33;33.00;37.40
11246;DHT22;59870;50.106;8.580;2023-07-22T10:34:01;32.80;37.70
11246;DHT22;59870;50.106;8.580;2023-07-22T10:36:29;32.70;37.40
11246;DHT22;59870;50.106;8.580;2023-07-22T10:38:59;32.60;36.50
11246;DHT22;59870;50.106;8.580;2023-07-22T10:41:32;32.50;37.20
11246;DHT22;59870;50.106;8.580;2023-07-22T10:44:00;32.40;37.90
11246;DHT22;59870;50.106;8.580;2023-07-22T10:46:37;32.30;38.30
11246;DHT22;59870;50.106;8.580;2023-07-22T10:49:13;32.20;39.10
11246;DHT22;59870;50.106;8.580;2023-07-22T10:51:41;32.30;39.40
11246;DHT22;59870;50.106;8.580;2023-07-22T10:54:12;32.10;38.90
11246;DHT22;59870;50.106;8.580;2023-07-22T10:56:42;32.10;37.50
11246;DHT22;59870;50.106;8.580;2023-07-22T10:59:11;32.00;37.30
11246;DHT22;59870;50.106;8.580;2023-07-22T11:01:43;32.20;38.50
11246;DHT22;59870;50.106;8.580;2023-07-22T11:12:16;31.60;36.60
11246;DHT22;59870;50.106;8.580;2023-07-22T11:17:17;31.50;38.20
11246;DHT22;59870;50.106;8.580;2023-07-22T11:19:45;31.50;37.10
11246;DHT22;59870;50.106;8.580;2023-07-22T11:22:13;31.40;37.30
11246;DHT22;59870;50.106;8.580;2023-07-22T11:24:41;31.40;37.70
11246;DHT22;59870;50.106;8.580;2023-07-22T11:27:08;31.30;37.40
11246;DHT22;59870;50.106;8.580;2023-07-22T11:29:36;31.20;37.60
11246;DHT22;59870;50.106;8.580;2023-07-22T11:32:04;31.10;38.40
11246;DHT22;59870;50.106;8.580;2023-07-22T11:34:33;31.00;38.40
11246;DHT22;59870;50.106;8.580;2023-07-22T11:37:01;31.00;38.50
11246;DHT22;59870;50.106;8.580;2023-07-22T11:39:30;30.90;38.20
11246;DHT22;59870;50.106;8.580;2023-07-22T11:42:00;30.80;39.80
11246;DHT22;59870;50.106;8.580;2023-07-22T11:44:31;30.80;39.20
11246;DHT22;59870;50.106;8.580;2023-07-22T11:47:06;30.80;39.50
11246;DHT22;59870;50.106;8.580;2023-07-22T11:49:41;30.80;39.20
11246;DHT22;59870;50.106;8.580;2023-07-22T11:52:11;30.70;40.10
11246;DHT22;59870;50.106;8.580;2023-07-22T11:54:43;30.70;40.10
11246;DHT22;59870;50.106;8.580;2023-07-22T11:57:18;30.80;40.10
11246;DHT22;59870;50.106;8.580;2023-07-22T11:59:54;30.70;39.30
11246;DHT22;59870;50.106;8.580;2023-07-22T12:02:25;30.60;40.20
11246;DHT22;59870;50.106;8.580;2023-07-22T12:04:55;30.70;40.30
11246;DHT22;59870;50.106;8.580;2023-07-22T12:07:30;30.60;39.80
11246;DHT22;59870;50.106;8.580;2023-07-22T12:10:00;30.60;40.40
11246;DHT22;59870;50.106;8.580;2023-07-22T12:12:42;30.80;41.30
11246;DHT22;59870;50.106;8.580;2023-07-22T12:15:18;30.60;39.80
11246;DHT22;59870;50.106;8.580;2023-07-22T12:17:47;30.60;39.50
11246;DHT22;59870;50.106;8.580;2023-07-22T12:20:16;30.50;40.60
11246;DHT22;59870;50.106;8.580;2023-07-22T12:22:44;30.60;39.70
11246;DHT22;59870;50.106;8.580;2023-07-22T12:25:12;30.60;39.80
11246;DHT22;59870;50.106;8.580;2023-07-22T12:27:39;30.60;39.70
11246;DHT22;59870;50.106;8.580;2023-07-22T12:30:07;30.50;39.90
11246;DHT22;59870;50.106;8.580;2023-07-22T12:32:35;30.50;39.60
11246;DHT22;59870;50.106;8.580;2023-07-22T12:35:06;30.50;39.60
11246;DHT22;59870;50.106;8.580;2023-07-22T12:37:35;30.40;40.70
11246;DHT22;59870;50.106;8.580;2023-07-22T12:40:03;30.40;40.50
11246;DHT22;59870;50.106;8.580;2023-07-22T12:42:39;30.40;39.10
11246;DHT22;59870;50.106;8.580;2023-07-22T12:45:08;30.50;41.30
11246;DHT22;59870;50.106;8.580;2023-07-22T12:47:35;30.30;40.70
11246;DHT22;59870;50.106;8.580;2023-07-22T12:50:06;30.50;41.10
11246;DHT22;59870;50.106;8.580;2023-07-22T12:52:37;30.30;42.20
11246;DHT22;59870;50.106;8.580;2023-07-22T12:55:05;30.40;40.90
11246;DHT22;59870;50.106;8.580;2023-07-22T12:57:33;30.20;40.30
11246;DHT22;59870;50.106;8.580;2023-07-22T13:00:01;30.20;42.10
11246;DHT22;59870;50.106;8.580;2023-07-22T13:02:28;30.20;42.10
11246;DHT22;59870;50.106;8.580;2023-07-22T13:04:56;30.40;40.30
11246;DHT22;59870;50.106;8.580;2023-07-22T13:07:24;30.40;41.10
11246;DHT22;59870;50.106;8.580;2023-07-22T13:09:53;30.20;41.20
11246;DHT22;59870;50.106;8.580;2023-07-22T13:12:23;30.20;40.20
11246;DHT22;59870;50.106;8.580;2023-07-22T13:14:51;30.30;41.90
11246;DHT22;59870;50.106;8.580;2023-07-22T13:17:21;30.20;41.30
11246;DHT22;59870;50.106;8.580;2023-07-22T13:19:49;30.20;42.10
11246;DHT22;59870;50.106;8.580;2023-07-22T13:22:16;30.30;40.00
11246;DHT22;59870;50.106;8.580;2023-07-22T13:24:44;30.30;40.20
11246;DHT22;59870;50.106;8.580;2023-07-22T13:27:12;30.30;41.40
11246;DHT22;59870;50.106;8.580;2023-07-22T13:29:39;30.30;41.80
11246;DHT22;59870;50.106;8.580;2023-07-22T13:32:07;30.30;40.20
11246;DHT22;59870;50.106;8.580;2023-07-22T13:34:38;30.30;38.90
11246;DHT22;59870;50.106;8.580;2023-07-22T13:37:05;30.50;39.70
11246;DHT22;59870;50.106;8.580;2023-07-22T13:39:33;30.30;41.30
11246;DHT22;59870;50.106;8.580;2023-07-22T13:42:02;30.30;42.00
11246;DHT22;59870;50.106;8.580;2023-07-22T13:44:29;30.20;42.60
11246;DHT22;59870;50.106;8.580;2023-07-22T13:46:57;30.30;40.50
11246;DHT22;59870;50.106;8.580;2023-07-22T13:49:24;30.30;40.60
11246;DHT22;59870;50.106;8.580;2023-07-22T13:51:52;30.30;39.10
11246;DHT22;59870;50.106;8.580;2023-07-22T13:54:19;30.30;38.00
11246;DHT22;59870;50.106;8.580;2023-07-22T13:56:47;30.50;37.50
11246;DHT22;59870;50.106;8.580;2023-07-22T13:59:14;30.50;39.70
11246;DHT22;59870;50.106;8.580;2023-07-22T14:01:45;30.30;39.90
11246;DHT22;59870;50.106;8.580;2023-07-22T14:04:13;30.60;41.10
11246;DHT22;59870;50.106;8.580;2023-07-22T14:06:40;30.30;38.10
11246;DHT22;59870;50.106;8.580;2023-07-22T14:09:07;30.40;37.10
11246;DHT22;59870;50.106;8.580;2023-07-22T14:11:35;30.60;39.10
11246;DHT22;59870;50.106;8.580;2023-07-22T14:14:03;30.30;38.40
11246;DHT22;59870;50.106;8.580;2023-07-22T14:16:30;30.30;38.90
11246;DHT22;59870;50.106;8.580;2023-07-22T14:19:00;30.40;37.40
11246;DHT22;59870;50.106;8.580;2023-07-22T14:21:27;30.40;38.50
11246;DHT22;59870;50.106;8.580;2023-07-22T14:23:55;30.30;38.20
11246;DHT22;59870;50.106;8.580;2023-07-22T14:26:22;30.60;37.40
11246;DHT22;59870;50.106;8.580;2023-07-22T14:28:50;30.40;37.00
11246;DHT22;59870;50.106;8.580;2023-07-22T14:31:18;30.30;37.90
11246;DHT22;59870;50.106;8.580;2023-07-22T14:33:45;30.30;37.80
11246;DHT22;59870;50.106;8.580;2023-07-22T14:36:13;30.60;37.80
11246;DHT22;59870;50.106;8.580;2023-07-22T14:38:40;30.30;37.40
11246;DHT22;59870;50.106;8.580;2023-07-22T14:41:08;30.60;38.40
11246;DHT22;59870;50.106;8.580;2023-07-22T14:43:36;30.30;37.90
11246;DHT22;59870;50.106;8.580;2023-07-22T14:46:03;30.30;37.00
11246;DHT22;59870;50.106;8.580;2023-07-22T14:48:33;30.30;37.20
11246;DHT22;59870;50.106;8.580;2023-07-22T14:51:01;30.30;37.40
11246;DHT22;59870;50.106;8.580;2023-07-22T14:53:31;30.50;36.80
11246;DHT22;59870;50.106;8.580;2023-07-22T14:55:59;30.00;37.50
11246;DHT22;59870;50.106;8.580;2023-07-22T14:58:26;30.30;37.00
11246;DHT22;59870;50.106;8.580;2023-07-22T15:00:54;30.30;36.80
11246;DHT22;59870;50.106;8.580;2023-07-22T15:03:21;30.20;36.50
11246;DHT22;59870;50.106;8.580;2023-07-22T15:05:49;30.50;37.00
11246;DHT22;59870;50.106;8.580;2023-07-22T15:08:16;30.20;36.80
11246;DHT22;59870;50.106;8.580;2023-07-22T15:10:44;30.20;36.70
11246;DHT22;59870;50.106;8.580;2023-07-22T15:13:11;30.20;37.00
11246;DHT22;59870;50.106;8.580;2023-07-22T15:15:41;30.50;37.70
11246;DHT22;59870;50.106;8.580;2023-07-22T15:18:08;30.20;36.70
11246;DHT22;59870;50.106;8.580;2023-07-22T15:20:38;30.20;37.00
11246;DHT22;59870;50.106;8.580;2023-07-22T15:23:06;30.20;36.10
11246;DHT22;59870;50.106;8.580;2023-07-22T15:25:34;30.20;36.00
11246;DHT22;59870;50.106;8.580;2023-07-22T15:28:01;30.20;36.70
11246;DHT22;59870;50.106;8.580;2023-07-22T15:30:29;30.10;36.00
11246;DHT22;59870;50.106;8.580;2023-07-22T15:32:56;30.30;36.30
11246;DHT22;59870;50.106;8.580;2023-07-22T15:35:24;30.10;36.50
11246;DHT22;59870;50.106;8.580;2023-07-22T15:37:52;30.40;36.70
11246;DHT22;59870;50.106;8.580;2023-07-22T15:40:21;30.10;37.00
11246;DHT22;59870;50.106;8.580;2023-07-22T15:42:50;30.10;36.70
11246;DHT22;59870;50.106;8.580;2023-07-22T15:45:18;30.00;36.40
11246;DHT22;59870;50.106;8.580;2023-07-22T15:47:45;30.00;36.00
11246;DHT22;59870;50.106;8.580;2023-07-22T15:50:12;30.00;36.40
11246;DHT22;59870;50.106;8.580;2023-07-22T15:52:40;30.00;36.50